Time;durP1;ratioP1;P1;durP2;ratioP2;P2;SDS_P1;SDS_P2;PMS_P1;PMS_P2;Temp;Humidity;BMP_temperature;BMP_pressure;BME280_temperature;BME280_humidity;BME280_pressure;Samples;Min_cycle;Max_cycle;Signal;HPM_P1;HPM_P2
2023/03/13 00:01:33;;;;;;;8.23;3.20;;;;;;;7.02;100.00;97645.41;5073666;28;20212;-76
2023/03/13 00:03:59;;;;;;;6.73;2.40;;;;;;;6.94;100.00;97645.66;5073094;28;20256;-77
2023/03/13 00:06:30;;;;;;;8.90;2.80;;;;;;;6.86;100.00;97643.22;5073058;28;20206;-76
2023/03/13 00:08:59;;;;;;;8.97;3.23;;;;;;;6.90;100.00;97648.91;5073104;28;20189;-76
2023/03/13 00:11:26;;;;;;;8.87;3.00;;;;;;;6.90;100.00;97635.69;5073028;28;20209;-77
2023/03/13 00:14:01;;;;;;;13.00;3.10;;;;;;;6.88;100.00;97643.03;5072938;28;20217;-76
2023/03/13 00:16:28;;;;;;;6.97;2.80;;;;;;;6.87;100.00;97629.00;5072835;28;20215;-76
2023/03/13 00:18:56;;;;;;;8.90;3.20;;;;;;;6.91;100.00;97629.38;5072937;28;20213;-76
2023/03/13 00:21:25;;;;;;;9.60;3.50;;;;;;;6.99;100.00;97632.63;5075526;28;20235;-76
2023/03/13 00:23:51;;;;;;;10.07;3.33;;;;;;;6.97;100.00;97631.22;5076428;28;20235;-76
2023/03/13 00:26:21;;;;;;;8.50;3.53;;;;;;;6.98;100.00;97624.91;5076515;28;20235;-76
2023/03/13 00:28:47;;;;;;;7.90;2.73;;;;;;;6.99;100.00;97622.06;5076296;28;20215;-76
2023/03/13 00:31:19;;;;;;;8.33;2.97;;;;;;;6.99;100.00;97623.88;5076141;28;20690;-77
2023/03/13 00:33:48;;;;;;;10.13;3.03;;;;;;;6.97;100.00;97620.66;5076292;28;20221;-77
2023/03/13 00:36:26;;;;;;;7.97;2.77;;;;;;;7.10;100.00;97623.28;5076296;28;20212;-76
2023/03/13 00:38:53;;;;;;;8.50;3.10;;;;;;;7.07;100.00;97611.28;5076026;28;20678;-77
2023/03/13 00:41:25;;;;;;;8.03;2.80;;;;;;;7.19;100.00;97620.16;5076288;28;20204;-76
2023/03/13 00:43:52;;;;;;;8.53;3.10;;;;;;;7.15;100.00;97613.69;5076254;28;20224;-77
2023/03/13 00:46:21;;;;;;;11.57;3.20;;;;;;;7.17;100.00;97603.72;5076180;28;20214;-76
2023/03/13 00:48:48;;;;;;;10.70;3.37;;;;;;;7.20;100.00;97611.22;5076214;28;20299;-76
2023/03/13 00:51:17;;;;;;;8.23;3.13;;;;;;;7.21;100.00;97598.81;5075852;28;20683;-76
2023/03/13 00:53:44;;;;;;;9.10;2.70;;;;;;;7.15;100.00;97604.94;5075671;28;20710;-76
2023/03/13 00:56:13;;;;;;;7.57;2.80;;;;;;;7.13;100.00;97602.50;5075771;28;20718;-76
2023/03/13 00:58:42;;;;;;;9.67;3.30;;;;;;;7.15;100.00;97597.03;5074514;28;20236;-77
2023/03/13 01:01:16;;;;;;;9.57;3.30;;;;;;;7.20;100.00;97591.91;5075951;28;20205;-76
2023/03/13 01:03:46;;;;;;;11.40;3.40;;;;;;;7.19;100.00;97588.44;5075688;28;20230;-76
2023/03/13 01:06:15;;;;;;;6.00;3.30;;;;;;;7.14;100.00;97595.38;5075709;28;20235;-76
2023/03/13 01:08:41;;;;;;;9.10;3.37;;;;;;;7.11;100.00;97579.94;5075834;28;20312;-76
2023/03/13 01:11:14;;;;;;;11.67;3.60;;;;;;;7.13;100.00;97575.25;5075737;28;20206;-76
2023/03/13 01:13:41;;;;;;;11.47;3.50;;;;;;;7.07;100.00;97573.47;5075699;28;20234;-76
2023/03/13 01:16:12;;;;;;;12.40;3.60;;;;;;;7.12;100.00;97573.63;5075254;28;20667;-76
2023/03/13 01:18:42;;;;;;;7.57;3.40;;;;;;;7.11;100.00;97559.59;5075163;28;20185;-76
2023/03/13 01:21:08;;;;;;;8.00;3.77;;;;;;;7.11;100.00;97562.25;5075137;28;20217;-76
2023/03/13 01:23:35;;;;;;;10.07;3.23;;;;;;;7.10;100.00;97550.06;5075332;28;20220;-76
2023/03/13 01:26:03;;;;;;;8.70;3.73;;;;;;;7.13;100.00;97548.81;5075411;28;20200;-76
2023/03/13 01:28:29;;;;;;;8.27;3.17;;;;;;;7.04;100.00;97545.63;5075431;28;20212;-76
2023/03/13 01:30:56;;;;;;;8.67;3.57;;;;;;;7.05;100.00;97534.03;5075183;28;20200;-76
2023/03/13 01:33:23;;;;;;;12.13;3.43;;;;;;;7.07;100.00;97534.63;5074960;28;20728;-77
2023/03/13 01:35:49;;;;;;;7.67;2.90;;;;;;;7.09;100.00;97529.13;5075235;28;20216;-76
2023/03/13 01:38:16;;;;;;;7.77;3.00;;;;;;;7.15;100.00;97529.09;5075232;28;20205;-76
2023/03/13 01:40:45;;;;;;;10.17;3.10;;;;;;;7.19;100.00;97527.66;5075179;28;20660;-76
2023/03/13 01:43:18;;;;;;;13.20;3.40;;;;;;;7.27;100.00;97522.13;5074737;28;20686;-76
2023/03/13 01:45:56;;;;;;;9.73;2.77;;;;;;;7.33;100.00;97509.91;5075123;28;20184;-76
2023/03/13 01:48:26;;;;;;;7.47;2.53;;;;;;;7.45;100.00;97516.13;5075014;28;20200;-76
2023/03/13 01:50:55;;;;;;;9.27;3.00;;;;;;;7.47;100.00;97511.44;5074978;28;20246;-76
2023/03/13 01:53:22;;;;;;;7.20;2.63;;;;;;;7.54;100.00;97504.28;5074878;28;20221;-76
2023/03/13 01:55:48;;;;;;;7.37;3.00;;;;;;;7.50;100.00;97495.97;5074751;28;20571;-76
2023/03/13 01:58:15;;;;;;;5.83;2.53;;;;;;;7.74;100.00;97491.75;5073518;28;20214;-76
2023/03/13 02:00:43;;;;;;;9.60;3.07;;;;;;;7.58;100.00;97495.72;5074614;28;20208;-76
2023/03/13 02:03:17;;;;;;;10.00;3.50;;;;;;;7.54;100.00;97483.13;5074408;28;20236;-76
2023/03/13 02:05:46;;;;;;;9.80;2.40;;;;;;;7.51;100.00;97472.97;5074624;28;20196;-76
2023/03/13 02:08:21;;;;;;;7.83;2.57;;;;;;;7.48;100.00;97465.47;5074151;28;20219;-76
2023/03/13 02:10:58;;;;;;;10.77;2.70;;;;;;;7.58;100.00;97466.63;5074453;28;20196;-76
2023/03/13 02:13:25;;;;;;;8.33;3.00;;;;;;;7.90;100.00;97465.56;5074038;28;20222;-77
2023/03/13 02:15:52;;;;;;;7.10;2.40;;;;;;;7.78;100.00;97461.19;5074085;28;20569;-76
2023/03/13 02:18:18;;;;;;;9.40;3.30;;;;;;;7.83;100.00;97456.06;5074292;28;20200;-76
2023/03/13 02:20:45;;;;;;;9.43;3.03;;;;;;;7.80;100.00;97456.47;5074248;28;20210;-76
2023/03/13 02:23:16;;;;;;;10.53;2.77;;;;;;;7.86;100.00;97452.97;5074108;28;20229;-76
2023/03/13 02:25:48;;;;;;;8.97;2.80;;;;;;;7.80;100.00;97459.94;5074322;28;20193;-76
2023/03/13 02:28:26;;;;;;;10.60;2.87;;;;;;;7.78;100.00;97458.53;5074771;28;20188;-76
2023/03/13 02:30:57;;;;;;;8.17;2.70;;;;;;;7.74;100.00;97446.78;5074009;28;20200;-76
2023/03/13 02:33:27;;;;;;;8.90;2.80;;;;;;;7.75;100.00;97451.84;5074038;28;20232;-77
2023/03/13 02:35:54;;;;;;;8.13;2.77;;;;;;;7.98;100.00;97443.31;5073723;28;20184;-77
2023/03/13 02:38:24;;;;;;;6.47;2.33;;;;;;;7.87;100.00;97441.38;5073907;28;20211;-76
2023/03/13 02:40:53;;;;;;;10.47;2.77;;;;;;;7.87;100.00;97433.44;5073944;28;20267;-76
2023/03/13 02:43:35;;;;;;;8.10;2.63;;;;;;;7.98;100.00;97414.19;5073086;28;20220;-76
2023/03/13 02:46:17;;;;;;;7.27;2.27;;;;;;;7.91;100.00;97410.78;5073503;28;20658;-76
2023/03/13 02:48:46;;;;;;;7.33;2.57;;;;;;;7.91;100.00;97403.66;5073574;28;20215;-77
2023/03/13 02:51:32;;;;;;;6.37;2.10;;;;;;;7.91;100.00;97405.47;5073484;28;20672;-76
2023/03/13 02:54:04;;;;;;;6.00;2.03;;;;;;;8.01;100.00;97392.59;5073861;28;20193;-76
2023/03/13 02:56:33;;;;;;;7.30;2.70;;;;;;;8.09;100.00;97395.75;5072689;28;20189;-76
2023/03/13 02:58:59;;;;;;;6.73;2.23;;;;;;;8.11;100.00;97390.25;5073220;28;20230;-76
2023/03/13 03:01:26;;;;;;;7.97;2.40;;;;;;;8.19;100.00;97382.00;5073653;28;20208;-76
2023/03/13 03:03:52;;;;;;;6.27;1.67;;;;;;;8.26;100.00;97382.75;5073450;28;20259;-77
2023/03/13 03:06:18;;;;;;;6.00;1.70;;;;;;;8.48;100.00;97366.22;5073544;28;20211;-76
2023/03/13 03:08:45;;;;;;;4.90;1.70;;;;;;;8.43;100.00;97367.91;5073161;28;20208;-76
2023/03/13 03:11:11;;;;;;;5.67;1.60;;;;;;;8.53;100.00;97373.50;5073126;28;20595;-76
2023/03/13 03:13:38;;;;;;;5.53;1.93;;;;;;;8.62;100.00;97369.50;5073383;28;20581;-76
2023/03/13 03:16:11;;;;;;;4.93;1.53;;;;;;;8.73;100.00;97374.88;5073313;28;20224;-76
2023/03/13 03:18:38;;;;;;;4.60;1.47;;;;;;;8.81;100.00;97363.13;5073578;28;20185;-76
2023/03/13 03:21:06;;;;;;;4.67;1.60;;;;;;;8.80;100.00;97358.88;5073558;28;20287;-77
2023/03/13 03:23:33;;;;;;;4.53;1.53;;;;;;;8.81;100.00;97349.88;5073080;28;20684;-76
2023/03/13 03:26:01;;;;;;;4.10;1.40;;;;;;;8.77;100.00;97357.47;5073504;28;20231;-76
2023/03/13 03:28:27;;;;;;;4.10;1.50;;;;;;;8.68;100.00;97355.34;5073358;28;20207;-77
2023/03/13 03:30:54;;;;;;;3.67;1.37;;;;;;;8.63;100.00;97352.56;5073342;28;20200;-77
2023/03/13 03:33:22;;;;;;;5.77;1.60;;;;;;;8.57;100.00;97348.19;5073173;28;20270;-77
2023/03/13 03:35:48;;;;;;;5.60;1.43;;;;;;;8.49;100.00;97354.59;5073194;28;20216;-77
2023/03/13 03:38:16;;;;;;;5.10;1.43;;;;;;;8.46;100.00;97352.38;5073212;28;20211;-77
2023/03/13 03:40:42;;;;;;;7.10;1.30;;;;;;;8.52;100.00;97342.75;5073222;28;20631;-77
2023/03/13 03:43:10;;;;;;;6.13;1.80;;;;;;;8.50;100.00;97342.13;5073179;28;20281;-77
2023/03/13 03:45:36;;;;;;;3.27;1.30;;;;;;;8.52;100.00;97343.56;5072792;28;20260;-76
2023/03/13 03:48:03;;;;;;;4.30;1.50;;;;;;;8.47;100.00;97337.31;5073090;28;20220;-77
2023/03/13 03:50:29;;;;;;;5.27;1.40;;;;;;;8.66;100.00;97329.13;5072736;28;20200;-77
2023/03/13 03:52:56;;;;;;;3.20;1.13;;;;;;;8.57;100.00;97341.06;5072973;28;20221;-77
2023/03/13 03:55:22;;;;;;;5.73;1.33;;;;;;;8.53;100.00;97341.69;5075636;28;20201;-76
2023/03/13 03:57:48;;;;;;;4.70;1.40;;;;;;;8.53;100.00;97341.69;5077029;28;20211;-77
2023/03/13 04:00:15;;;;;;;3.77;1.23;;;;;;;8.66;100.00;97328.28;5076939;28;20201;-76
2023/03/13 04:02:42;;;;;;;4.13;1.30;;;;;;;8.81;100.00;97333.97;5076723;28;20246;-77
2023/03/13 04:05:09;;;;;;;4.57;1.17;;;;;;;8.91;100.00;97336.94;5076540;28;20250;-77
2023/03/13 04:07:35;;;;;;;4.57;1.27;;;;;;;8.92;100.00;97335.88;5076245;28;20204;-76
2023/03/13 04:10:02;;;;;;;3.03;1.20;;;;;;;9.05;100.00;97327.75;5076396;28;20574;-76
2023/03/13 04:12:29;;;;;;;2.13;0.93;;;;;;;9.37;100.00;97321.13;5076192;28;20315;-76
2023/03/13 04:14:55;;;;;;;2.40;0.90;;;;;;;9.59;100.00;97319.53;5076134;28;20200;-76
2023/03/13 04:17:21;;;;;;;2.57;0.90;;;;;;;10.07;100.00;97314.78;5075987;28;20208;-76
2023/03/13 04:19:48;;;;;;;2.03;0.73;;;;;;;10.34;100.00;97302.59;5076094;28;20215;-75
2023/03/13 04:22:14;;;;;;;1.47;0.60;;;;;;;10.40;100.00;97306.97;5075871;28;20749;-76
2023/03/13 04:24:40;;;;;;;1.43;0.70;;;;;;;10.70;100.00;97294.28;5075487;28;20540;-76
2023/03/13 04:27:07;;;;;;;2.53;0.63;;;;;;;11.04;100.00;97302.06;5075994;28;20218;-76
2023/03/13 04:29:34;;;;;;;1.87;0.57;;;;;;;11.07;100.00;97298.13;5076268;28;20211;-76
2023/03/13 04:32:01;;;;;;;2.97;0.80;;;;;;;11.23;100.00;97308.00;5075922;28;20224;-75
2023/03/13 04:34:27;;;;;;;1.00;0.90;;;;;;;11.16;100.00;97294.03;5075818;28;20208;-75
2023/03/13 04:36:54;;;;;;;1.43;0.53;;;;;;;11.18;100.00;97282.09;5075787;28;20212;-76
2023/03/13 04:39:24;;;;;;;2.00;0.60;;;;;;;11.28;100.00;97292.91;5075573;28;20235;-75
2023/03/13 04:41:53;;;;;;;1.90;0.73;;;;;;;11.35;100.00;97292.72;5075286;28;20201;-75
2023/03/13 04:44:20;;;;;;;1.30;0.70;;;;;;;11.35;100.00;97298.06;5076066;28;20597;-76
2023/03/13 04:46:47;;;;;;;2.27;0.70;;;;;;;11.30;100.00;97300.63;5076121;28;20200;-76
2023/03/13 04:49:14;;;;;;;2.20;0.60;;;;;;;11.34;100.00;97299.13;5075512;28;20664;-76
2023/03/13 04:51:42;;;;;;;1.97;0.50;;;;;;;11.46;100.00;97299.03;5075415;28;20204;-76
2023/03/13 04:54:08;;;;;;;0.97;0.77;;;;;;;11.55;100.00;97303.72;5075554;28;20563;-75
2023/03/13 04:56:35;;;;;;;1.50;0.60;;;;;;;11.49;100.00;97304.66;5075455;28;20201;-75
2023/03/13 04:59:02;;;;;;;1.90;0.77;;;;;;;11.40;100.00;97300.00;5074916;28;20220;-76
2023/03/13 05:01:28;;;;;;;1.60;0.70;;;;;;;11.44;100.00;97295.81;5075368;28;20205;-75
2023/03/13 05:03:55;;;;;;;0.80;0.60;;;;;;;11.30;100.00;97300.63;5075921;28;20241;-76
2023/03/13 05:06:21;;;;;;;0.80;0.50;;;;;;;11.39;100.00;97296.53;5077616;28;20666;-75
2023/03/13 05:08:47;;;;;;;2.47;0.60;;;;;;;11.37;100.00;97290.66;5076912;28;20212;-76
2023/03/13 05:11:14;;;;;;;1.60;0.80;;;;;;;11.27;100.00;97296.59;5075771;28;20212;-76
2023/03/13 05:13:40;;;;;;;1.07;0.50;;;;;;;11.26;100.00;97282.75;5074679;28;20227;-76
2023/03/13 05:16:07;;;;;;;0.87;0.60;;;;;;;11.44;100.00;97295.81;5074679;28;20214;-75
2023/03/13 05:18:34;;;;;;;0.80;0.50;;;;;;;11.40;100.00;97292.03;5075067;28;20201;-76
2023/03/13 05:21:01;;;;;;;2.20;0.50;;;;;;;11.38;100.00;97286.94;5075167;28;20208;-75
2023/03/13 05:23:28;;;;;;;0.63;0.50;;;;;;;11.33;100.00;97294.84;5074170;28;20228;-75
2023/03/13 05:25:54;;;;;;;1.30;0.60;;;;;;;11.26;100.00;97309.34;5074374;28;20240;-76
2023/03/13 05:28:21;;;;;;;0.57;0.53;;;;;;;11.30;100.00;97311.28;5075390;28;20209;-76
2023/03/13 05:30:47;;;;;;;1.93;0.50;;;;;;;11.25;100.00;97305.88;5075044;28;20513;-76
2023/03/13 05:33:13;;;;;;;1.53;0.50;;;;;;;11.42;100.00;97303.22;5074788;28;20250;-76
2023/03/13 05:35:40;;;;;;;1.17;0.40;;;;;;;11.39;100.00;97290.41;5074432;28;20289;-76
2023/03/13 05:38:06;;;;;;;1.20;0.70;;;;;;;11.38;100.00;97286.94;5074461;28;20202;-75
2023/03/13 05:40:32;;;;;;;2.07;0.80;;;;;;;11.47;100.00;97276.69;5073949;28;20214;-76
2023/03/13 05:42:59;;;;;;;0.50;0.50;;;;;;;11.51;100.00;97286.63;5073850;28;20586;-75
2023/03/13 05:45:25;;;;;;;1.20;0.50;;;;;;;11.45;100.00;97268.97;5074030;28;20350;-76
2023/03/13 05:47:52;;;;;;;1.80;0.60;;;;;;;11.53;100.00;97279.19;5073974;28;20670;-76
2023/03/13 05:50:18;;;;;;;0.50;0.50;;;;;;;11.51;100.00;97281.28;5074051;28;20202;-77
2023/03/13 05:52:44;;;;;;;0.60;0.50;;;;;;;11.47;100.00;97284.66;5073815;28;20220;-76
2023/03/13 05:55:11;;;;;;;3.07;0.60;;;;;;;11.45;100.00;97287.59;5074162;28;20204;-76
2023/03/13 05:57:38;;;;;;;0.90;0.43;;;;;;;11.49;100.00;97282.59;5073848;28;20210;-76
2023/03/13 06:00:05;;;;;;;1.07;0.60;;;;;;;11.56;100.00;97281.38;5073812;28;20673;-75
2023/03/13 06:02:31;;;;;;;1.30;0.50;;;;;;;11.54;100.00;97266.69;5073669;28;20226;-75
2023/03/13 06:04:58;;;;;;;0.57;0.40;;;;;;;11.62;100.00;97272.44;5072993;28;20221;-75
2023/03/13 06:07:24;;;;;;;1.47;0.70;;;;;;;11.59;100.00;97272.91;5073527;28;20209;-75
2023/03/13 06:09:50;;;;;;;0.50;0.50;;;;;;;11.56;100.00;97289.34;5073705;28;20201;-75
2023/03/13 06:12:17;;;;;;;0.87;0.40;;;;;;;11.72;100.00;97279.78;5073385;28;20225;-75
2023/03/13 06:14:43;;;;;;;0.87;0.50;;;;;;;11.65;100.00;97287.94;5072617;28;20198;-75
2023/03/13 06:17:09;;;;;;;0.40;0.40;;;;;;;11.72;100.00;97280.59;5071835;28;20213;-75
2023/03/13 06:19:36;;;;;;;1.40;0.60;;;;;;;11.71;100.00;97291.47;5071641;28;20205;-76
2023/03/13 06:22:02;;;;;;;0.40;0.40;;;;;;;11.72;100.00;97282.44;5072890;28;20225;-75
2023/03/13 06:24:28;;;;;;;0.50;0.50;;;;;;;11.68;100.00;97278.63;5073530;28;20225;-76
2023/03/13 06:26:55;;;;;;;0.67;0.50;;;;;;;11.87;100.00;97285.31;5072973;28;20206;-75
2023/03/13 06:29:22;;;;;;;0.40;0.40;;;;;;;12.01;100.00;97292.69;5072501;28;20302;-76
2023/03/13 06:31:49;;;;;;;0.73;0.50;;;;;;;11.95;100.00;97283.03;5071967;28;20223;-76
2023/03/13 06:34:15;;;;;;;0.30;0.30;;;;;;;12.06;100.00;97279.44;5072303;28;20688;-75
2023/03/13 06:36:41;;;;;;;0.50;0.30;;;;;;;12.01;100.00;97282.03;5072782;28;20208;-76
2023/03/13 06:39:09;;;;;;;0.97;0.50;;;;;;;12.20;100.00;97272.69;5072586;28;20204;-75
2023/03/13 06:41:35;;;;;;;0.50;0.50;;;;;;;12.20;100.00;97280.69;5072848;28;20215;-76
2023/03/13 06:44:02;;;;;;;1.93;0.67;;;;;;;12.27;100.00;97277.84;5071922;28;20211;-75
2023/03/13 06:46:28;;;;;;;1.00;0.50;;;;;;;12.29;100.00;97281.09;5072022;28;20228;-76
2023/03/13 06:48:55;;;;;;;0.70;0.57;;;;;;;12.32;100.00;97273.38;5072134;28;20569;-76
2023/03/13 06:51:22;;;;;;;0.50;0.50;;;;;;;12.20;100.00;97269.25;5072697;28;20639;-76
2023/03/13 06:53:51;;;;;;;0.30;0.30;;;;;;;12.21;100.00;97279.63;5071694;28;20231;-76
2023/03/13 06:56:17;;;;;;;0.73;0.40;;;;;;;12.29;100.00;97287.19;5071998;28;20234;-75
2023/03/13 06:58:47;;;;;;;1.30;0.40;;;;;;;12.28;100.00;97300.75;5072660;28;20207;-76
2023/03/13 07:01:16;;;;;;;0.63;0.40;;;;;;;12.20;100.00;97304.66;5072572;28;20272;-76
2023/03/13 07:03:43;;;;;;;0.40;0.40;;;;;;;12.21;100.00;97292.94;5071637;28;20224;-75
2023/03/13 07:06:11;;;;;;;0.40;0.40;;;;;;;12.27;100.00;97281.31;5071616;28;20718;-77
2023/03/13 07:08:37;;;;;;;1.20;0.60;;;;;;;12.25;100.00;97293.28;5071615;28;20211;-75
2023/03/13 07:11:08;;;;;;;0.67;0.60;;;;;;;12.29;100.00;97294.41;5072505;28;20215;-76
2023/03/13 07:13:34;;;;;;;0.40;0.40;;;;;;;12.27;100.00;97293.84;5071782;28;20736;-75
2023/03/13 07:16:07;;;;;;;0.50;0.50;;;;;;;12.27;100.00;97299.16;5072804;28;20203;-76
2023/03/13 07:18:34;;;;;;;1.03;0.50;;;;;;;12.31;100.00;97302.94;5072793;28;20192;-75
2023/03/13 07:21:03;;;;;;;0.70;0.40;;;;;;;12.34;100.00;97299.78;5071988;28;20208;-75
2023/03/13 07:23:31;;;;;;;0.70;0.40;;;;;;;12.32;100.00;97302.69;5072222;28;20227;-75
2023/03/13 07:26:00;;;;;;;1.13;0.50;;;;;;;12.29;100.00;97303.19;5071504;28;20311;-74
2023/03/13 07:28:28;;;;;;;0.63;0.60;;;;;;;12.27;100.00;97296.50;5070247;28;20610;-75
2023/03/13 07:30:55;;;;;;;0.60;0.50;;;;;;;12.23;100.00;97296.19;5051828;28;20212;-75
2023/03/13 07:33:21;;;;;;;0.40;0.40;;;;;;;12.20;100.00;97286.03;5051858;28;20704;-75
2023/03/13 07:35:49;;;;;;;0.40;0.40;;;;;;;12.25;100.00;97287.97;5051572;28;20613;-75
2023/03/13 07:38:16;;;;;;;1.00;0.57;;;;;;;12.20;100.00;97290.56;5052269;28;20213;-75
2023/03/13 07:40:53;;;;;;;0.73;0.50;;;;;;;12.17;100.00;97286.50;5052068;28;20216;-76
2023/03/13 07:43:20;;;;;;;0.87;0.60;;;;;;;12.17;100.00;97283.84;5051269;28;20231;-75
2023/03/13 07:45:57;;;;;;;0.50;0.50;;;;;;;12.31;100.00;97276.28;5054531;28;20532;-76
2023/03/13 07:48:30;;;;;;;1.10;0.63;;;;;;;12.38;100.00;97268.94;5052036;28;20205;-75
2023/03/13 07:50:57;;;;;;;2.80;0.70;;;;;;;12.36;100.00;97271.84;5051787;28;20663;-75
2023/03/13 07:53:24;;;;;;;0.93;0.60;;;;;;;12.33;100.00;97269.66;5051711;28;20676;-75
2023/03/13 07:55:55;;;;;;;0.40;0.40;;;;;;;12.33;100.00;97268.84;5052186;28;20227;-75
2023/03/13 07:58:22;;;;;;;0.80;0.43;;;;;;;12.48;100.00;97261.81;5051971;28;20668;-75
2023/03/13 08:00:48;;;;;;;0.73;0.60;;;;;;;12.51;100.00;97248.00;5051947;28;20232;-74
2023/03/13 08:03:14;;;;;;;0.70;0.70;;;;;;;12.61;100.00;97255.31;5052190;28;20258;-77
2023/03/13 08:05:41;;;;;;;0.50;0.50;;;;;;;12.68;100.00;97245.25;5051852;28;20317;-76
2023/03/13 08:08:08;;;;;;;1.43;1.00;;;;;;;12.76;100.00;97236.81;5052542;28;20205;-76
2023/03/13 08:10:34;;;;;;;1.00;0.50;;;;;;;12.79;100.00;97237.09;5052187;28;20527;-75
2023/03/13 08:13:00;;;;;;;0.40;0.40;;;;;;;12.89;100.00;97225.72;5051778;28;20225;-76
2023/03/13 08:15:27;;;;;;;0.43;0.43;;;;;;;12.98;100.00;97214.34;5051831;28;20209;-75
2023/03/13 08:17:55;;;;;;;1.73;0.70;;;;;;;13.09;100.00;97212.56;5051505;28;20220;-75
2023/03/13 08:20:21;;;;;;;0.40;0.40;;;;;;;13.21;100.00;97218.56;5051763;28;20544;-75
2023/03/13 08:22:49;;;;;;;1.30;0.50;;;;;;;13.24;100.00;97210.00;5051796;28;20236;-76
2023/03/13 08:25:16;;;;;;;0.67;0.40;;;;;;;13.37;100.00;97210.41;5052556;28;20700;-75
2023/03/13 08:27:42;;;;;;;0.77;0.50;;;;;;;13.53;99.61;97205.97;5051707;28;20664;-75
2023/03/13 08:30:09;;;;;;;0.47;0.47;;;;;;;13.52;100.00;97204.38;5051468;28;20209;-76
2023/03/13 08:32:36;;;;;;;0.67;0.60;;;;;;;13.49;99.49;97203.00;5052058;28;20225;-75
2023/03/13 08:35:04;;;;;;;2.40;1.10;;;;;;;13.62;99.38;97225.78;5051573;28;20213;-75
2023/03/13 08:37:30;;;;;;;1.17;0.70;;;;;;;13.59;99.96;97216.41;5051276;28;20665;-75
2023/03/13 08:39:56;;;;;;;1.70;0.50;;;;;;;13.54;98.79;97211.06;5051663;28;20299;-74
2023/03/13 08:42:23;;;;;;;1.53;0.80;;;;;;;13.58;98.76;97212.16;5054707;28;20236;-75
2023/03/13 08:44:50;;;;;;;0.50;0.50;;;;;;;13.65;98.10;97219.94;5055034;28;20571;-76
2023/03/13 08:47:17;;;;;;;0.60;0.60;;;;;;;13.62;98.74;97212.44;5055153;28;20202;-75
2023/03/13 08:49:43;;;;;;;1.03;0.70;;;;;;;13.74;96.68;97219.16;5056149;28;20212;-76
2023/03/13 08:52:10;;;;;;;1.03;0.73;;;;;;;13.72;97.38;97226.66;5055451;28;20232;-75
2023/03/13 08:54:36;;;;;;;2.07;0.73;;;;;;;13.79;96.18;97219.19;5055174;28;20283;-76
2023/03/13 08:57:03;;;;;;;0.83;0.60;;;;;;;13.91;95.61;97224.34;5054866;28;20205;-75
2023/03/13 08:59:30;;;;;;;1.53;0.70;;;;;;;13.95;95.76;97225.44;5054966;28;20668;-76
2023/03/13 09:01:56;;;;;;;0.60;0.60;;;;;;;14.04;93.17;97214.00;5054784;28;20232;-75
2023/03/13 09:04:22;;;;;;;0.70;0.70;;;;;;;14.05;93.66;97228.13;5054807;28;20205;-75
2023/03/13 09:06:49;;;;;;;0.80;0.77;;;;;;;14.10;92.09;97217.47;5055083;28;20229;-75
2023/03/13 09:09:15;;;;;;;1.70;0.80;;;;;;;14.15;92.23;97217.50;5055097;28;20227;-73
2023/03/13 09:11:41;;;;;;;1.90;0.80;;;;;;;14.14;91.50;97219.38;5054829;28;20212;-73
2023/03/13 09:14:10;;;;;;;0.87;0.73;;;;;;;14.17;91.71;97229.56;5054828;28;20207;-73
2023/03/13 09:16:36;;;;;;;1.40;0.90;;;;;;;14.16;92.18;97217.22;5054828;28;20217;-74
2023/03/13 09:19:03;;;;;;;1.70;0.70;;;;;;;14.17;90.31;97202.81;5054874;28;20205;-73
2023/03/13 09:21:32;;;;;;;1.90;0.70;;;;;;;14.21;89.90;97211.16;5055056;28;20212;-73
2023/03/13 09:23:59;;;;;;;2.57;0.77;;;;;;;14.24;90.63;97211.41;5054771;28;20205;-72
2023/03/13 09:26:27;;;;;;;2.57;1.00;;;;;;;14.35;90.99;97209.59;5054243;28;20236;-73
2023/03/13 09:28:54;;;;;;;0.77;0.60;;;;;;;14.39;89.26;97216.03;5054334;28;20319;-74
2023/03/13 09:31:24;;;;;;;1.70;0.90;;;;;;;14.48;89.41;97204.53;5054247;28;20664;-73
2023/03/13 09:33:51;;;;;;;1.20;0.80;;;;;;;14.57;88.73;97212.84;5054793;28;20232;-73
2023/03/13 09:36:19;;;;;;;0.80;0.77;;;;;;;14.56;88.17;97212.03;5054348;28;20223;-74
2023/03/13 09:38:45;;;;;;;0.90;0.73;;;;;;;14.48;88.78;97230.47;5054727;28;20248;-73
2023/03/13 09:41:25;;;;;;;1.43;0.70;;;;;;;14.49;89.14;97218.72;5054234;28;20208;-73
2023/03/13 09:44:09;;;;;;;0.70;0.70;;;;;;;14.48;89.58;97228.59;5054294;28;20315;-73
2023/03/13 09:46:42;;;;;;;1.33;0.80;;;;;;;14.47;89.63;97218.97;5053555;28;20213;-73
2023/03/13 09:49:28;;;;;;;1.47;0.80;;;;;;;14.61;88.86;97213.94;5054704;28;20215;-73
2023/03/13 09:52:02;;;;;;;0.97;0.87;;;;;;;14.77;87.20;97224.41;5037431;28;20233;-73
2023/03/13 09:54:35;;;;;;;3.27;1.30;;;;;;;14.88;85.87;97219.88;5053657;28;20186;-73
2023/03/13 09:57:12;;;;;;;1.20;0.90;;;;;;;15.06;84.89;97214.00;5054197;28;20280;-73
2023/03/13 09:59:45;;;;;;;2.40;0.83;;;;;;;15.10;84.04;97194.44;5053933;28;20196;-73
2023/03/13 10:02:18;;;;;;;2.63;1.10;;;;;;;15.41;84.76;97195.25;5054082;28;20229;-72
2023/03/13 10:04:49;;;;;;;1.57;1.20;;;;;;;15.37;82.76;97192.31;5053984;28;20201;-72
2023/03/13 10:07:16;;;;;;;3.70;1.10;;;;;;;15.36;82.18;97198.75;5053727;28;20209;-73
2023/03/13 10:09:43;;;;;;;1.13;0.80;;;;;;;15.21;82.40;97197.94;5053647;28;20201;-74
2023/03/13 10:12:19;;;;;;;1.10;0.90;;;;;;;15.13;83.86;97195.78;5052469;28;20229;-74
2023/03/13 10:15:06;;;;;;;1.07;0.83;;;;;;;15.13;82.06;97185.06;5053680;28;20193;-73
2023/03/13 10:17:38;;;;;;;0.90;0.83;;;;;;;15.28;81.36;97185.09;5053336;28;20232;-73
2023/03/13 10:20:23;;;;;;;2.77;1.00;;;;;;;15.46;79.91;97187.19;5053371;28;20655;-73
2023/03/13 10:22:54;;;;;;;2.47;1.10;;;;;;;15.68;80.53;97180.47;5053971;28;20221;-74
2023/03/13 10:25:38;;;;;;;1.30;1.00;;;;;;;16.03;77.97;97177.69;5052370;28;20237;-73
2023/03/13 10:28:06;;;;;;;3.03;1.10;;;;;;;16.27;76.63;97167.91;5052752;28;20205;-73
2023/03/13 10:30:35;;;;;;;1.13;1.03;;;;;;;16.32;75.97;97161.72;5053091;28;20209;-73
2023/03/13 10:33:07;;;;;;;1.63;1.00;;;;;;;16.62;74.35;97166.94;5053253;28;20312;-73
2023/03/13 10:35:39;;;;;;;1.70;1.23;;;;;;;16.46;75.21;97173.50;5053169;28;20201;-74
2023/03/13 10:38:09;;;;;;;1.33;0.80;;;;;;;16.45;74.13;97171.84;5053343;28;20220;-73
2023/03/13 10:40:35;;;;;;;1.83;1.10;;;;;;;16.36;74.74;97166.25;5051924;28;20211;-74
2023/03/13 10:43:07;;;;;;;0.90;0.80;;;;;;;16.61;73.96;97171.47;5053332;28;20229;-74
2023/03/13 10:45:36;;;;;;;3.07;1.10;;;;;;;16.51;74.33;97163.50;5052979;28;20217;-74
2023/03/13 10:48:30;;;;;;;3.53;1.47;;;;;;;16.40;74.56;97153.94;5053028;28;20570;-74
2023/03/13 10:50:57;;;;;;;3.87;1.10;;;;;;;16.38;73.47;97150.66;5050668;28;20209;-74
2023/03/13 10:53:33;;;;;;;1.23;1.00;;;;;;;16.42;73.98;97165.16;5052726;28;20236;-74
2023/03/13 10:56:16;;;;;;;1.63;0.90;;;;;;;16.39;73.09;97160.34;5053377;28;20209;-74
2023/03/13 10:58:46;;;;;;;2.43;1.17;;;;;;;16.44;74.36;97144.25;5052989;28;20204;-74
2023/03/13 11:01:16;;;;;;;3.33;1.30;;;;;;;16.50;73.18;97145.81;5052813;28;20638;-74
2023/03/13 11:03:43;;;;;;;1.70;1.10;;;;;;;16.53;74.75;97121.13;5052355;28;20232;-74
2023/03/13 11:06:26;;;;;;;2.77;1.10;;;;;;;16.90;71.81;97131.28;5052640;28;20339;-74
2023/03/13 11:09:05;;;;;;;3.23;1.37;;;;;;;16.80;73.03;97137.56;5052428;28;20267;-71
2023/03/13 11:11:44;;;;;;;5.33;1.03;;;;;;;16.71;71.35;97130.38;5052589;28;20649;-73
2023/03/13 11:14:16;;;;;;;1.40;1.30;;;;;;;16.70;71.59;97132.25;5052691;28;20563;-72
2023/03/13 11:16:49;;;;;;;3.00;1.20;;;;;;;16.62;71.07;97119.44;5052419;28;20296;-72
2023/03/13 11:20:06;;;;;;;1.67;1.30;;;;;;;16.76;72.24;97133.81;5052658;28;20220;-73
2023/03/13 11:22:51;;;;;;;3.00;1.20;;;;;;;16.87;71.32;97107.72;5030046;28;20321;-72
2023/03/13 11:25:41;;;;;;;3.73;1.30;;;;;;;17.05;71.70;97110.47;5014057;28;20194;-73
2023/03/13 11:28:25;;;;;;;2.40;1.33;;;;;;;17.26;70.16;97108.41;5041610;28;20209;-73
2023/03/13 11:31:00;;;;;;;1.93;0.97;;;;;;;17.48;69.58;97092.63;5051347;28;20194;-72
2023/03/13 11:33:48;;;;;;;1.57;1.20;;;;;;;17.64;67.84;97086.78;5052431;28;20359;-72
2023/03/13 11:36:47;;;;;;;1.97;1.20;;;;;;;17.80;68.66;97072.09;5052348;28;20262;-73
2023/03/13 11:39:38;;;;;;;2.27;1.20;;;;;;;17.84;68.59;97058.84;5052119;28;20617;-72